sensor_id;sensor_type;location;lat;lon;timestamp;P1;durP1;ratioP1;P2;durP2;ratioP2
17177;SDS011;8704;52.006;4.374;2023-05-20T00:00:07;10.68;;;5.22;;
17177;SDS011;8704;52.006;4.374;2023-05-20T00:02:37;14.18;;;5.88;;
17177;SDS011;8704;52.006;4.374;2023-05-20T00:05:06;12.20;;;5.47;;
17177;SDS011;8704;52.006;4.374;2023-05-20T00:07:34;14.63;;;5.68;;
17177;SDS011;8704;52.006;4.374;2023-05-20T00:10:03;13.50;;;5.60;;
17177;SDS011;8704;52.006;4.374;2023-05-20T00:12:31;9.27;;;5.18;;
17177;SDS011;8704;52.006;4.374;2023-05-20T00:15:00;15.00;;;6.28;;
17177;SDS011;8704;52.006;4.374;2023-05-20T00:17:29;9.30;;;5.03;;
17177;SDS011;8704;52.006;4.374;2023-05-20T00:19:58;8.00;;;5.10;;
17177;SDS011;8704;52.006;4.374;2023-05-20T00:22:26;11.57;;;5.40;;
17177;SDS011;8704;52.006;4.374;2023-05-20T00:24:54;13.18;;;6.18;;
17177;SDS011;8704;52.006;4.374;2023-05-20T00:27:22;12.27;;;6.35;;
17177;SDS011;8704;52.006;4.374;2023-05-20T00:29:50;12.48;;;6.00;;
17177;SDS011;8704;52.006;4.374;2023-05-20T00:32:18;12.27;;;5.72;;
17177;SDS011;8704;52.006;4.374;2023-05-20T00:34:54;10.32;;;5.45;;
17177;SDS011;8704;52.006;4.374;2023-05-20T00:37:24;11.63;;;6.40;;
17177;SDS011;8704;52.006;4.374;2023-05-20T00:39:53;11.13;;;6.05;;
17177;SDS011;8704;52.006;4.374;2023-05-20T00:42:21;15.32;;;6.47;;
17177;SDS011;8704;52.006;4.374;2023-05-20T00:44:49;12.30;;;5.80;;
17177;SDS011;8704;52.006;4.374;2023-05-20T00:47:18;9.48;;;6.05;;
17177;SDS011;8704;52.006;4.374;2023-05-20T00:49:47;10.30;;;5.60;;
17177;SDS011;8704;52.006;4.374;2023-05-20T00:52:17;11.00;;;5.78;;
17177;SDS011;8704;52.006;4.374;2023-05-20T00:54:47;10.57;;;5.82;;
17177;SDS011;8704;52.006;4.374;2023-05-20T00:57:16;11.25;;;6.00;;
17177;SDS011;8704;52.006;4.374;2023-05-20T00:59:45;14.85;;;6.35;;
17177;SDS011;8704;52.006;4.374;2023-05-20T01:02:13;12.60;;;6.55;;
17177;SDS011;8704;52.006;4.374;2023-05-20T01:04:41;11.10;;;5.85;;
17177;SDS011;8704;52.006;4.374;2023-05-20T01:07:12;9.80;;;5.93;;
17177;SDS011;8704;52.006;4.374;2023-05-20T01:09:42;11.82;;;5.93;;
17177;SDS011;8704;52.006;4.374;2023-05-20T01:12:13;11.68;;;5.90;;
17177;SDS011;8704;52.006;4.374;2023-05-20T01:14:47;10.32;;;5.85;;
17177;SDS011;8704;52.006;4.374;2023-05-20T01:17:17;11.95;;;6.43;;
17177;SDS011;8704;52.006;4.374;2023-05-20T01:19:47;10.80;;;6.03;;
17177;SDS011;8704;52.006;4.374;2023-05-20T01:22:16;14.23;;;6.88;;
17177;SDS011;8704;52.006;4.374;2023-05-20T01:24:45;15.05;;;7.22;;
17177;SDS011;8704;52.006;4.374;2023-05-20T01:27:14;11.38;;;6.25;;
17177;SDS011;8704;52.006;4.374;2023-05-20T01:29:42;13.45;;;6.70;;
17177;SDS011;8704;52.006;4.374;2023-05-20T01:32:11;12.48;;;6.78;;
17177;SDS011;8704;52.006;4.374;2023-05-20T01:34:45;11.05;;;6.70;;
17177;SDS011;8704;52.006;4.374;2023-05-20T01:37:16;11.50;;;6.25;;
17177;SDS011;8704;52.006;4.374;2023-05-20T01:39:47;14.35;;;6.75;;
17177;SDS011;8704;52.006;4.374;2023-05-20T01:42:16;13.10;;;6.43;;
17177;SDS011;8704;52.006;4.374;2023-05-20T01:44:45;10.68;;;6.22;;
17177;SDS011;8704;52.006;4.374;2023-05-20T01:47:14;15.35;;;7.55;;
17177;SDS011;8704;52.006;4.374;2023-05-20T01:49:41;13.25;;;6.93;;
17177;SDS011;8704;52.006;4.374;2023-05-20T01:52:11;11.85;;;7.13;;
17177;SDS011;8704;52.006;4.374;2023-05-20T01:54:39;13.57;;;7.53;;
17177;SDS011;8704;52.006;4.374;2023-05-20T01:57:08;12.98;;;7.68;;
17177;SDS011;8704;52.006;4.374;2023-05-20T01:59:36;17.05;;;7.75;;
17177;SDS011;8704;52.006;4.374;2023-05-20T02:02:04;11.27;;;7.00;;
17177;SDS011;8704;52.006;4.374;2023-05-20T02:04:32;11.27;;;7.05;;
17177;SDS011;8704;52.006;4.374;2023-05-20T02:07:00;10.68;;;7.15;;
17177;SDS011;8704;52.006;4.374;2023-05-20T02:09:28;10.70;;;6.88;;
17177;SDS011;8704;52.006;4.374;2023-05-20T02:11:56;15.23;;;7.53;;
17177;SDS011;8704;52.006;4.374;2023-05-20T02:14:26;13.15;;;7.80;;
17177;SDS011;8704;52.006;4.374;2023-05-20T02:16:53;15.10;;;8.02;;
17177;SDS011;8704;52.006;4.374;2023-05-20T02:19:21;12.48;;;7.15;;
17177;SDS011;8704;52.006;4.374;2023-05-20T02:21:49;10.70;;;7.22;;
17177;SDS011;8704;52.006;4.374;2023-05-20T02:24:17;11.95;;;7.50;;
17177;SDS011;8704;52.006;4.374;2023-05-20T02:26:46;14.82;;;7.65;;
17177;SDS011;8704;52.006;4.374;2023-05-20T02:29:16;15.57;;;6.97;;
17177;SDS011;8704;52.006;4.374;2023-05-20T02:31:46;12.40;;;6.93;;
17177;SDS011;8704;52.006;4.374;2023-05-20T02:34:16;13.68;;;7.55;;
17177;SDS011;8704;52.006;4.374;2023-05-20T02:36:44;13.80;;;8.30;;
17177;SDS011;8704;52.006;4.374;2023-05-20T02:39:12;12.73;;;7.72;;
17177;SDS011;8704;52.006;4.374;2023-05-20T02:41:40;12.38;;;7.45;;
17177;SDS011;8704;52.006;4.374;2023-05-20T02:44:08;12.40;;;7.53;;
17177;SDS011;8704;52.006;4.374;2023-05-20T02:46:36;13.32;;;8.15;;
17177;SDS011;8704;52.006;4.374;2023-05-20T02:49:06;13.93;;;7.70;;
17177;SDS011;8704;52.006;4.374;2023-05-20T02:51:34;10.68;;;7.80;;
17177;SDS011;8704;52.006;4.374;2023-05-20T02:54:02;12.38;;;7.30;;
17177;SDS011;8704;52.006;4.374;2023-05-20T02:56:30;13.13;;;7.80;;
17177;SDS011;8704;52.006;4.374;2023-05-20T02:58:59;16.80;;;8.20;;
17177;SDS011;8704;52.006;4.374;2023-05-20T03:01:28;13.68;;;7.82;;
17177;SDS011;8704;52.006;4.374;2023-05-20T03:03:59;9.77;;;7.78;;
17177;SDS011;8704;52.006;4.374;2023-05-20T03:06:28;14.40;;;7.90;;
17177;SDS011;8704;52.006;4.374;2023-05-20T03:08:57;14.32;;;7.90;;
17177;SDS011;8704;52.006;4.374;2023-05-20T03:11:25;15.05;;;8.00;;
17177;SDS011;8704;52.006;4.374;2023-05-20T03:13:53;13.93;;;7.50;;
17177;SDS011;8704;52.006;4.374;2023-05-20T03:16:21;13.43;;;8.88;;
17177;SDS011;8704;52.006;4.374;2023-05-20T03:18:50;13.18;;;8.02;;
17177;SDS011;8704;52.006;4.374;2023-05-20T03:21:19;12.75;;;7.82;;
17177;SDS011;8704;52.006;4.374;2023-05-20T03:23:50;11.48;;;7.13;;
17177;SDS011;8704;52.006;4.374;2023-05-20T03:26:18;16.70;;;8.05;;
17177;SDS011;8704;52.006;4.374;2023-05-20T03:28:46;13.77;;;7.50;;
17177;SDS011;8704;52.006;4.374;2023-05-20T03:31:14;16.83;;;8.25;;
17177;SDS011;8704;52.006;4.374;2023-05-20T03:33:43;14.63;;;7.55;;
17177;SDS011;8704;52.006;4.374;2023-05-20T03:36:11;13.68;;;7.75;;
17177;SDS011;8704;52.006;4.374;2023-05-20T03:38:39;14.27;;;7.95;;
17177;SDS011;8704;52.006;4.374;2023-05-20T03:41:08;15.60;;;8.30;;
17177;SDS011;8704;52.006;4.374;2023-05-20T03:43:37;11.77;;;6.78;;
17177;SDS011;8704;52.006;4.374;2023-05-20T03:46:05;15.73;;;7.70;;
17177;SDS011;8704;52.006;4.374;2023-05-20T03:48:33;14.90;;;7.72;;
17177;SDS011;8704;52.006;4.374;2023-05-20T03:51:01;16.17;;;8.50;;
17177;SDS011;8704;52.006;4.374;2023-05-20T03:53:29;13.90;;;7.40;;
17177;SDS011;8704;52.006;4.374;2023-05-20T03:55:57;12.52;;;7.97;;
17177;SDS011;8704;52.006;4.374;2023-05-20T03:58:26;12.80;;;8.10;;
17177;SDS011;8704;52.006;4.374;2023-05-20T04:00:54;13.40;;;7.90;;
17177;SDS011;8704;52.006;4.374;2023-05-20T04:03:22;19.75;;;8.77;;
17177;SDS011;8704;52.006;4.374;2023-05-20T04:05:51;12.02;;;7.68;;
17177;SDS011;8704;52.006;4.374;2023-05-20T04:08:19;14.70;;;8.38;;
17177;SDS011;8704;52.006;4.374;2023-05-20T04:10:47;14.57;;;7.47;;
17177;SDS011;8704;52.006;4.374;2023-05-20T04:13:15;12.25;;;7.93;;
17177;SDS011;8704;52.006;4.374;2023-05-20T04:15:44;13.23;;;8.48;;
17177;SDS011;8704;52.006;4.374;2023-05-20T04:18:13;14.23;;;8.75;;
17177;SDS011;8704;52.006;4.374;2023-05-20T04:20:41;12.02;;;8.38;;
17177;SDS011;8704;52.006;4.374;2023-05-20T04:23:09;12.00;;;7.53;;
17177;SDS011;8704;52.006;4.374;2023-05-20T04:25:37;14.25;;;8.60;;
17177;SDS011;8704;52.006;4.374;2023-05-20T04:28:06;12.10;;;9.15;;
17177;SDS011;8704;52.006;4.374;2023-05-20T04:30:35;15.48;;;9.20;;
17177;SDS011;8704;52.006;4.374;2023-05-20T04:33:05;13.38;;;8.85;;
17177;SDS011;8704;52.006;4.374;2023-05-20T04:35:33;14.70;;;9.25;;
17177;SDS011;8704;52.006;4.374;2023-05-20T04:38:02;12.13;;;8.20;;
17177;SDS011;8704;52.006;4.374;2023-05-20T04:40:30;15.00;;;8.60;;
17177;SDS011;8704;52.006;4.374;2023-05-20T04:42:59;13.95;;;8.93;;
17177;SDS011;8704;52.006;4.374;2023-05-20T04:45:27;13.40;;;8.43;;
17177;SDS011;8704;52.006;4.374;2023-05-20T04:47:55;15.20;;;8.60;;
17177;SDS011;8704;52.006;4.374;2023-05-20T04:50:24;13.85;;;8.57;;
17177;SDS011;8704;52.006;4.374;2023-05-20T04:52:52;16.20;;;9.13;;
17177;SDS011;8704;52.006;4.374;2023-05-20T04:55:20;12.80;;;8.38;;
17177;SDS011;8704;52.006;4.374;2023-05-20T04:57:50;14.18;;;9.23;;
17177;SDS011;8704;52.006;4.374;2023-05-20T05:00:18;13.32;;;9.10;;
17177;SDS011;8704;52.006;4.374;2023-05-20T05:02:46;18.67;;;9.35;;
17177;SDS011;8704;52.006;4.374;2023-05-20T05:05:14;16.13;;;9.02;;
17177;SDS011;8704;52.006;4.374;2023-05-20T05:07:43;14.52;;;9.27;;
17177;SDS011;8704;52.006;4.374;2023-05-20T05:10:11;15.10;;;9.77;;
17177;SDS011;8704;52.006;4.374;2023-05-20T05:12:40;17.40;;;10.25;;
17177;SDS011;8704;52.006;4.374;2023-05-20T05:15:09;14.10;;;9.38;;
17177;SDS011;8704;52.006;4.374;2023-05-20T05:17:37;14.52;;;9.85;;
17177;SDS011;8704;52.006;4.374;2023-05-20T05:20:06;13.23;;;8.88;;
17177;SDS011;8704;52.006;4.374;2023-05-20T05:22:35;13.75;;;8.63;;
17177;SDS011;8704;52.006;4.374;2023-05-20T05:25:06;13.15;;;9.05;;
17177;SDS011;8704;52.006;4.374;2023-05-20T05:27:35;13.02;;;9.25;;
17177;SDS011;8704;52.006;4.374;2023-05-20T05:30:04;16.65;;;9.32;;
17177;SDS011;8704;52.006;4.374;2023-05-20T05:32:33;16.35;;;9.35;;
17177;SDS011;8704;52.006;4.374;2023-05-20T05:35:03;13.05;;;9.23;;
17177;SDS011;8704;52.006;4.374;2023-05-20T05:37:33;17.33;;;9.13;;
17177;SDS011;8704;52.006;4.374;2023-05-20T05:40:01;12.00;;;9.00;;
17177;SDS011;8704;52.006;4.374;2023-05-20T05:42:31;14.43;;;8.45;;
17177;SDS011;8704;52.006;4.374;2023-05-20T05:44:59;15.32;;;9.38;;
17177;SDS011;8704;52.006;4.374;2023-05-20T05:47:27;15.07;;;8.43;;
17177;SDS011;8704;52.006;4.374;2023-05-20T05:49:58;14.27;;;8.82;;
17177;SDS011;8704;52.006;4.374;2023-05-20T05:52:26;15.27;;;9.43;;
17177;SDS011;8704;52.006;4.374;2023-05-20T05:54:54;14.27;;;8.93;;
17177;SDS011;8704;52.006;4.374;2023-05-20T05:57:22;11.68;;;8.60;;
17177;SDS011;8704;52.006;4.374;2023-05-20T05:59:51;12.20;;;8.48;;
17177;SDS011;8704;52.006;4.374;2023-05-20T06:02:19;14.85;;;8.20;;
17177;SDS011;8704;52.006;4.374;2023-05-20T06:04:48;14.27;;;8.35;;
17177;SDS011;8704;52.006;4.374;2023-05-20T06:07:16;16.77;;;8.73;;
17177;SDS011;8704;52.006;4.374;2023-05-20T06:09:44;12.50;;;8.40;;
17177;SDS011;8704;52.006;4.374;2023-05-20T06:12:12;15.15;;;8.35;;
17177;SDS011;8704;52.006;4.374;2023-05-20T06:14:40;13.48;;;8.90;;
17177;SDS011;8704;52.006;4.374;2023-05-20T06:17:09;12.25;;;8.00;;
17177;SDS011;8704;52.006;4.374;2023-05-20T06:19:37;14.65;;;8.27;;
17177;SDS011;8704;52.006;4.374;2023-05-20T06:22:05;13.27;;;8.13;;
17177;SDS011;8704;52.006;4.374;2023-05-20T06:24:34;11.35;;;8.15;;
17177;SDS011;8704;52.006;4.374;2023-05-20T06:27:02;11.90;;;7.82;;
17177;SDS011;8704;52.006;4.374;2023-05-20T06:29:30;13.77;;;8.02;;
17177;SDS011;8704;52.006;4.374;2023-05-20T06:31:58;14.27;;;8.55;;
17177;SDS011;8704;52.006;4.374;2023-05-20T06:34:27;11.23;;;7.47;;
17177;SDS011;8704;52.006;4.374;2023-05-20T06:36:55;14.35;;;8.60;;
17177;SDS011;8704;52.006;4.374;2023-05-20T06:39:23;12.52;;;7.88;;
17177;SDS011;8704;52.006;4.374;2023-05-20T06:41:51;10.90;;;8.63;;
17177;SDS011;8704;52.006;4.374;2023-05-20T06:44:19;12.35;;;7.78;;
17177;SDS011;8704;52.006;4.374;2023-05-20T06:46:47;10.98;;;7.65;;
17177;SDS011;8704;52.006;4.374;2023-05-20T06:49:16;11.27;;;6.95;;
17177;SDS011;8704;52.006;4.374;2023-05-20T06:51:45;12.40;;;7.07;;
17177;SDS011;8704;52.006;4.374;2023-05-20T06:54:13;11.13;;;6.28;;
17177;SDS011;8704;52.006;4.374;2023-05-20T06:56:41;11.80;;;7.15;;
17177;SDS011;8704;52.006;4.374;2023-05-20T06:59:09;14.63;;;7.00;;
17177;SDS011;8704;52.006;4.374;2023-05-20T07:01:37;11.40;;;6.72;;
17177;SDS011;8704;52.006;4.374;2023-05-20T07:04:05;9.88;;;6.10;;
17177;SDS011;8704;52.006;4.374;2023-05-20T07:06:33;10.30;;;5.88;;
17177;SDS011;8704;52.006;4.374;2023-05-20T07:09:02;11.27;;;5.72;;
17177;SDS011;8704;52.006;4.374;2023-05-20T07:11:30;12.65;;;5.80;;
17177;SDS011;8704;52.006;4.374;2023-05-20T07:13:58;10.38;;;5.32;;
17177;SDS011;8704;52.006;4.374;2023-05-20T07:16:26;7.75;;;5.55;;
17177;SDS011;8704;52.006;4.374;2023-05-20T07:18:57;7.40;;;5.18;;
17177;SDS011;8704;52.006;4.374;2023-05-20T07:21:25;12.93;;;5.40;;
17177;SDS011;8704;52.006;4.374;2023-05-20T07:23:53;7.85;;;5.20;;
17177;SDS011;8704;52.006;4.374;2023-05-20T07:26:22;11.70;;;4.95;;
17177;SDS011;8704;52.006;4.374;2023-05-20T07:28:51;10.10;;;5.00;;
17177;SDS011;8704;52.006;4.374;2023-05-20T07:31:19;11.20;;;5.38;;
17177;SDS011;8704;52.006;4.374;2023-05-20T07:33:46;11.13;;;5.38;;
17177;SDS011;8704;52.006;4.374;2023-05-20T07:36:14;8.50;;;5.43;;
17177;SDS011;8704;52.006;4.374;2023-05-20T07:38:42;8.95;;;5.05;;
17177;SDS011;8704;52.006;4.374;2023-05-20T07:41:28;9.02;;;5.50;;
17177;SDS011;8704;52.006;4.374;2023-05-20T07:43:56;7.78;;;5.07;;
17177;SDS011;8704;52.006;4.374;2023-05-20T07:46:24;11.00;;;5.40;;
17177;SDS011;8704;52.006;4.374;2023-05-20T07:48:53;7.07;;;5.20;;
17177;SDS011;8704;52.006;4.374;2023-05-20T07:51:21;9.93;;;5.32;;
17177;SDS011;8704;52.006;4.374;2023-05-20T07:53:49;9.52;;;5.15;;
17177;SDS011;8704;52.006;4.374;2023-05-20T07:56:17;9.73;;;5.38;;
17177;SDS011;8704;52.006;4.374;2023-05-20T07:58:51;12.40;;;5.38;;
17177;SDS011;8704;52.006;4.374;2023-05-20T08:01:20;10.65;;;5.65;;
17177;SDS011;8704;52.006;4.374;2023-05-20T08:03:48;9.55;;;5.50;;
17177;SDS011;8704;52.006;4.374;2023-05-20T08:06:17;9.80;;;5.20;;
17177;SDS011;8704;52.006;4.374;2023-05-20T08:08:45;7.65;;;4.75;;
17177;SDS011;8704;52.006;4.374;2023-05-20T08:11:13;7.93;;;4.60;;
17177;SDS011;8704;52.006;4.374;2023-05-20T08:13:41;9.98;;;4.70;;
17177;SDS011;8704;52.006;4.374;2023-05-20T08:16:10;6.00;;;4.15;;
17177;SDS011;8704;52.006;4.374;2023-05-20T08:18:39;8.07;;;4.50;;
17177;SDS011;8704;52.006;4.374;2023-05-20T08:21:06;6.40;;;3.97;;
17177;SDS011;8704;52.006;4.374;2023-05-20T08:23:35;7.97;;;4.40;;
17177;SDS011;8704;52.006;4.374;2023-05-20T08:26:05;6.70;;;3.97;;
17177;SDS011;8704;52.006;4.374;2023-05-20T08:28:33;7.43;;;3.60;;
17177;SDS011;8704;52.006;4.374;2023-05-20T08:31:03;7.03;;;3.83;;
17177;SDS011;8704;52.006;4.374;2023-05-20T08:33:32;5.88;;;3.47;;
17177;SDS011;8704;52.006;4.374;2023-05-20T08:36:00;7.75;;;3.70;;
17177;SDS011;8704;52.006;4.374;2023-05-20T08:38:28;8.32;;;3.80;;
17177;SDS011;8704;52.006;4.374;2023-05-20T08:40:56;7.05;;;4.03;;
17177;SDS011;8704;52.006;4.374;2023-05-20T08:43:26;6.93;;;3.67;;
17177;SDS011;8704;52.006;4.374;2023-05-20T08:45:55;6.00;;;3.42;;
17177;SDS011;8704;52.006;4.374;2023-05-20T08:48:23;6.63;;;3.72;;
17177;SDS011;8704;52.006;4.374;2023-05-20T08:50:54;7.35;;;3.60;;
17177;SDS011;8704;52.006;4.374;2023-05-20T08:53:24;6.87;;;3.40;;
17177;SDS011;8704;52.006;4.374;2023-05-20T08:55:53;6.82;;;3.72;;
17177;SDS011;8704;52.006;4.374;2023-05-20T08:58:26;4.60;;;3.08;;
17177;SDS011;8704;52.006;4.374;2023-05-20T09:00:54;8.63;;;3.85;;
17177;SDS011;8704;52.006;4.374;2023-05-20T09:03:24;8.02;;;3.53;;
17177;SDS011;8704;52.006;4.374;2023-05-20T09:06:01;5.50;;;2.90;;
17177;SDS011;8704;52.006;4.374;2023-05-20T09:08:30;4.88;;;3.17;;
17177;SDS011;8704;52.006;4.374;2023-05-20T09:10:59;4.00;;;2.80;;
17177;SDS011;8704;52.006;4.374;2023-05-20T09:13:28;6.80;;;2.90;;
17177;SDS011;8704;52.006;4.374;2023-05-20T09:15:58;6.68;;;2.70;;
17177;SDS011;8704;52.006;4.374;2023-05-20T09:18:27;4.80;;;2.80;;
17177;SDS011;8704;52.006;4.374;2023-05-20T09:20:57;6.55;;;2.80;;
17177;SDS011;8704;52.006;4.374;2023-05-20T09:23:32;6.40;;;2.83;;
17177;SDS011;8704;52.006;4.374;2023-05-20T09:26:02;7.18;;;2.85;;
17177;SDS011;8704;52.006;4.374;2023-05-20T09:28:30;5.65;;;2.60;;
17177;SDS011;8704;52.006;4.374;2023-05-20T09:31:01;3.95;;;2.70;;
17177;SDS011;8704;52.006;4.374;2023-05-20T09:33:29;6.57;;;2.45;;
17177;SDS011;8704;52.006;4.374;2023-05-20T09:36:06;7.28;;;2.85;;
17177;SDS011;8704;52.006;4.374;2023-05-20T09:38:36;6.18;;;2.90;;
17177;SDS011;8704;52.006;4.374;2023-05-20T09:41:06;6.82;;;2.80;;
17177;SDS011;8704;52.006;4.374;2023-05-20T09:43:34;5.07;;;2.38;;
17177;SDS011;8704;52.006;4.374;2023-05-20T09:46:03;5.38;;;2.45;;
17177;SDS011;8704;52.006;4.374;2023-05-20T09:48:31;5.35;;;2.17;;
17177;SDS011;8704;52.006;4.374;2023-05-20T09:51:03;6.40;;;2.70;;
17177;SDS011;8704;52.006;4.374;2023-05-20T09:53:33;5.45;;;2.83;;
17177;SDS011;8704;52.006;4.374;2023-05-20T09:56:02;4.95;;;2.80;;
17177;SDS011;8704;52.006;4.374;2023-05-20T09:58:31;7.75;;;2.70;;
17177;SDS011;8704;52.006;4.374;2023-05-20T10:01:01;4.83;;;2.43;;
17177;SDS011;8704;52.006;4.374;2023-05-20T10:03:30;5.95;;;2.47;;
17177;SDS011;8704;52.006;4.374;2023-05-20T10:06:03;7.05;;;2.50;;
17177;SDS011;8704;52.006;4.374;2023-05-20T10:08:54;3.53;;;2.20;;
17177;SDS011;8704;52.006;4.374;2023-05-20T10:11:32;4.07;;;2.55;;
17177;SDS011;8704;52.006;4.374;2023-05-20T10:14:10;5.35;;;2.53;;
17177;SDS011;8704;52.006;4.374;2023-05-20T10:16:56;6.07;;;2.38;;
17177;SDS011;8704;52.006;4.374;2023-05-20T10:19:34;5.97;;;2.55;;
17177;SDS011;8704;52.006;4.374;2023-05-20T10:22:04;4.85;;;2.40;;
17177;SDS011;8704;52.006;4.374;2023-05-20T10:24:34;3.80;;;1.90;;
17177;SDS011;8704;52.006;4.374;2023-05-20T10:27:07;3.53;;;2.17;;
17177;SDS011;8704;52.006;4.374;2023-05-20T10:29:43;5.45;;;2.53;;
17177;SDS011;8704;52.006;4.374;2023-05-20T10:32:22;5.03;;;2.25;;
17177;SDS011;8704;52.006;4.374;2023-05-20T10:34:51;5.70;;;1.70;;
17177;SDS011;8704;52.006;4.374;2023-05-20T10:37:25;4.15;;;2.20;;
17177;SDS011;8704;52.006;4.374;2023-05-20T10:40:07;6.88;;;2.22;;
17177;SDS011;8704;52.006;4.374;2023-05-20T10:42:37;4.88;;;2.03;;
17177;SDS011;8704;52.006;4.374;2023-05-20T10:45:06;4.38;;;2.13;;
17177;SDS011;8704;52.006;4.374;2023-05-20T10:47:35;3.70;;;2.25;;
17177;SDS011;8704;52.006;4.374;2023-05-20T10:50:03;5.60;;;2.10;;
17177;SDS011;8704;52.006;4.374;2023-05-20T10:52:35;7.53;;;2.38;;
17177;SDS011;8704;52.006;4.374;2023-05-20T10:55:03;7.85;;;2.30;;
17177;SDS011;8704;52.006;4.374;2023-05-20T10:57:32;7.32;;;2.28;;
17177;SDS011;8704;52.006;4.374;2023-05-20T11:00:01;4.72;;;2.50;;
17177;SDS011;8704;52.006;4.374;2023-05-20T11:02:36;4.45;;;1.95;;
17177;SDS011;8704;52.006;4.374;2023-05-20T11:05:05;4.22;;;2.03;;
17177;SDS011;8704;52.006;4.374;2023-05-20T11:07:38;5.22;;;2.47;;
17177;SDS011;8704;52.006;4.374;2023-05-20T11:10:07;5.45;;;2.13;;
17177;SDS011;8704;52.006;4.374;2023-05-20T11:12:36;4.80;;;2.08;;
17177;SDS011;8704;52.006;4.374;2023-05-20T11:15:05;4.72;;;2.40;;
17177;SDS011;8704;52.006;4.374;2023-05-20T11:17:34;10.02;;;2.25;;
17177;SDS011;8704;52.006;4.374;2023-05-20T11:20:02;12.60;;;2.60;;
17177;SDS011;8704;52.006;4.374;2023-05-20T11:22:30;4.45;;;2.20;;
17177;SDS011;8704;52.006;4.374;2023-05-20T11:25:03;5.63;;;2.50;;
17177;SDS011;8704;52.006;4.374;2023-05-20T11:27:32;7.78;;;2.53;;
17177;SDS011;8704;52.006;4.374;2023-05-20T11:30:00;6.20;;;2.17;;
17177;SDS011;8704;52.006;4.374;2023-05-20T11:32:29;3.65;;;1.98;;
17177;SDS011;8704;52.006;4.374;2023-05-20T11:34:57;5.32;;;2.17;;
17177;SDS011;8704;52.006;4.374;2023-05-20T11:37:25;3.38;;;2.10;;
17177;SDS011;8704;52.006;4.374;2023-05-20T11:40:03;4.00;;;2.22;;
17177;SDS011;8704;52.006;4.374;2023-05-20T11:42:34;8.75;;;2.30;;
17177;SDS011;8704;52.006;4.374;2023-05-20T11:45:02;5.35;;;2.38;;
17177;SDS011;8704;52.006;4.374;2023-05-20T11:47:31;4.03;;;2.10;;
17177;SDS011;8704;52.006;4.374;2023-05-20T11:49:59;6.45;;;2.38;;
17177;SDS011;8704;52.006;4.374;2023-05-20T11:52:28;5.35;;;2.20;;
17177;SDS011;8704;52.006;4.374;2023-05-20T11:54:56;4.53;;;2.38;;
17177;SDS011;8704;52.006;4.374;2023-05-20T11:57:25;8.52;;;2.65;;
17177;SDS011;8704;52.006;4.374;2023-05-20T11:59:53;5.18;;;2.10;;
17177;SDS011;8704;52.006;4.374;2023-05-20T12:02:21;5.20;;;2.05;;
17177;SDS011;8704;52.006;4.374;2023-05-20T12:04:49;7.45;;;2.15;;
17177;SDS011;8704;52.006;4.374;2023-05-20T12:07:17;5.47;;;2.08;;
17177;SDS011;8704;52.006;4.374;2023-05-20T12:09:45;5.38;;;2.70;;
17177;SDS011;8704;52.006;4.374;2023-05-20T12:12:13;4.07;;;2.40;;
17177;SDS011;8704;52.006;4.374;2023-05-20T12:14:43;10.95;;;2.40;;
17177;SDS011;8704;52.006;4.374;2023-05-20T12:17:11;6.28;;;2.67;;
17177;SDS011;8704;52.006;4.374;2023-05-20T12:19:39;6.13;;;2.53;;
17177;SDS011;8704;52.006;4.374;2023-05-20T12:22:07;7.68;;;2.33;;
17177;SDS011;8704;52.006;4.374;2023-05-20T12:24:35;5.18;;;2.15;;
17177;SDS011;8704;52.006;4.374;2023-05-20T12:27:03;5.00;;;2.17;;
17177;SDS011;8704;52.006;4.374;2023-05-20T12:29:32;4.53;;;2.10;;
17177;SDS011;8704;52.006;4.374;2023-05-20T12:32:04;5.70;;;2.40;;
17177;SDS011;8704;52.006;4.374;2023-05-20T12:34:33;6.40;;;2.60;;
17177;SDS011;8704;52.006;4.374;2023-05-20T12:37:01;6.70;;;2.53;;
17177;SDS011;8704;52.006;4.374;2023-05-20T12:39:29;8.80;;;6.07;;
17177;SDS011;8704;52.006;4.374;2023-05-20T12:41:57;9.00;;;5.90;;
17177;SDS011;8704;52.006;4.374;2023-05-20T12:44:25;8.60;;;4.25;;
17177;SDS011;8704;52.006;4.374;2023-05-20T12:46:53;5.07;;;3.17;;
17177;SDS011;8704;52.006;4.374;2023-05-20T12:49:23;4.40;;;2.38;;
17177;SDS011;8704;52.006;4.374;2023-05-20T12:51:51;4.13;;;2.30;;
17177;SDS011;8704;52.006;4.374;2023-05-20T12:54:19;4.55;;;2.10;;
17177;SDS011;8704;52.006;4.374;2023-05-20T12:56:47;5.70;;;2.20;;
17177;SDS011;8704;52.006;4.374;2023-05-20T12:59:15;10.30;;;2.60;;
17177;SDS011;8704;52.006;4.374;2023-05-20T13:01:43;6.22;;;2.58;;
17177;SDS011;8704;52.006;4.374;2023-05-20T13:04:11;5.82;;;2.40;;
17177;SDS011;8704;52.006;4.374;2023-05-20T13:06:41;5.40;;;2.30;;
17177;SDS011;8704;52.006;4.374;2023-05-20T13:09:09;5.18;;;2.00;;
17177;SDS011;8704;52.006;4.374;2023-05-20T13:11:37;5.05;;;2.20;;
17177;SDS011;8704;52.006;4.374;2023-05-20T13:14:06;5.15;;;2.40;;
17177;SDS011;8704;52.006;4.374;2023-05-20T13:16:34;4.40;;;2.55;;
17177;SDS011;8704;52.006;4.374;2023-05-20T13:19:02;5.53;;;2.25;;
17177;SDS011;8704;52.006;4.374;2023-05-20T13:21:30;4.97;;;2.05;;
17177;SDS011;8704;52.006;4.374;2023-05-20T13:23:59;5.15;;;2.20;;
17177;SDS011;8704;52.006;4.374;2023-05-20T13:26:27;3.42;;;1.95;;
17177;SDS011;8704;52.006;4.374;2023-05-20T13:28:55;5.05;;;2.38;;
17177;SDS011;8704;52.006;4.374;2023-05-20T13:31:23;3.33;;;1.92;;
17177;SDS011;8704;52.006;4.374;2023-05-20T13:33:51;4.47;;;1.95;;
17177;SDS011;8704;52.006;4.374;2023-05-20T13:36:20;5.82;;;2.33;;
17177;SDS011;8704;52.006;4.374;2023-05-20T13:38:48;5.05;;;2.10;;
17177;SDS011;8704;52.006;4.374;2023-05-20T13:41:18;6.78;;;2.17;;
17177;SDS011;8704;52.006;4.374;2023-05-20T13:43:46;5.63;;;2.70;;
17177;SDS011;8704;52.006;4.374;2023-05-20T13:46:14;4.78;;;2.05;;
17177;SDS011;8704;52.006;4.374;2023-05-20T13:48:43;4.50;;;2.35;;
17177;SDS011;8704;52.006;4.374;2023-05-20T13:51:11;4.22;;;2.25;;
17177;SDS011;8704;52.006;4.374;2023-05-20T13:53:39;6.07;;;2.08;;
17177;SDS011;8704;52.006;4.374;2023-05-20T13:56:07;5.38;;;2.20;;
17177;SDS011;8704;52.006;4.374;2023-05-20T13:58:37;3.80;;;2.42;;
17177;SDS011;8704;52.006;4.374;2023-05-20T14:01:05;3.83;;;2.10;;
17177;SDS011;8704;52.006;4.374;2023-05-20T14:03:33;3.95;;;2.10;;
17177;SDS011;8704;52.006;4.374;2023-05-20T14:06:02;3.85;;;2.03;;
17177;SDS011;8704;52.006;4.374;2023-05-20T14:08:31;3.30;;;2.00;;
17177;SDS011;8704;52.006;4.374;2023-05-20T14:10:59;4.03;;;1.92;;
17177;SDS011;8704;52.006;4.374;2023-05-20T14:13:27;6.18;;;2.88;;
17177;SDS011;8704;52.006;4.374;2023-05-20T14:15:56;5.15;;;2.00;;
17177;SDS011;8704;52.006;4.374;2023-05-20T14:18:24;3.30;;;2.05;;
17177;SDS011;8704;52.006;4.374;2023-05-20T14:20:52;4.18;;;2.15;;
17177;SDS011;8704;52.006;4.374;2023-05-20T14:23:21;6.65;;;2.50;;
17177;SDS011;8704;52.006;4.374;2023-05-20T14:25:49;6.88;;;2.00;;
17177;SDS011;8704;52.006;4.374;2023-05-20T14:28:17;4.57;;;2.65;;
17177;SDS011;8704;52.006;4.374;2023-05-20T14:30:45;5.93;;;2.50;;
17177;SDS011;8704;52.006;4.374;2023-05-20T14:33:14;3.92;;;2.28;;
17177;SDS011;8704;52.006;4.374;2023-05-20T14:35:42;6.55;;;2.40;;
17177;SDS011;8704;52.006;4.374;2023-05-20T14:38:10;4.25;;;2.40;;
17177;SDS011;8704;52.006;4.374;2023-05-20T14:40:38;8.02;;;3.10;;
17177;SDS011;8704;52.006;4.374;2023-05-20T14:43:06;5.72;;;2.78;;
17177;SDS011;8704;52.006;4.374;2023-05-20T14:45:34;5.95;;;2.42;;
17177;SDS011;8704;52.006;4.374;2023-05-20T14:48:02;5.65;;;2.40;;
17177;SDS011;8704;52.006;4.374;2023-05-20T14:50:33;6.18;;;2.40;;
17177;SDS011;8704;52.006;4.374;2023-05-20T14:53:02;5.07;;;2.35;;
17177;SDS011;8704;52.006;4.374;2023-05-20T14:55:30;5.28;;;2.00;;
17177;SDS011;8704;52.006;4.374;2023-05-20T14:57:58;6.72;;;2.30;;
17177;SDS011;8704;52.006;4.374;2023-05-20T15:00:26;5.65;;;2.40;;
17177;SDS011;8704;52.006;4.374;2023-05-20T15:02:55;6.10;;;3.30;;
17177;SDS011;8704;52.006;4.374;2023-05-20T15:05:23;7.20;;;2.72;;